createdAt,value
2018-02-11T00:00:03.894Z,39.67
2018-02-11T00:02:30.582Z,39.75
2018-02-11T00:04:57.438Z,38.45
2018-02-11T00:07:24.636Z,40.30
2018-02-11T00:09:51.788Z,39.67
2018-02-11T00:12:19.039Z,38.67
2018-02-11T00:14:45.907Z,39.40
2018-02-11T00:17:12.754Z,40.33
2018-02-11T00:19:39.875Z,40.92
2018-02-11T00:22:06.741Z,38.33
2018-02-11T00:24:33.972Z,40.90
2018-02-11T00:27:01.114Z,39.10
2018-02-11T00:29:27.962Z,39.40
2018-02-11T00:31:54.802Z,39.60
2018-02-11T00:34:21.664Z,37.72
2018-02-11T00:36:48.766Z,37.67
2018-02-11T00:39:15.628Z,38.40
2018-02-11T00:41:42.472Z,38.70
2018-02-11T00:44:09.328Z,38.42
2018-02-11T00:46:36.485Z,39.63
2018-02-11T00:49:03.306Z,38.40
2018-02-11T00:51:30.180Z,41.10
2018-02-11T00:53:57.046Z,38.67
2018-02-11T00:56:23.868Z,39.43
2018-02-11T00:58:51.005Z,40.17
2018-02-11T01:01:18.161Z,39.50
2018-02-11T01:03:45.056Z,38.63
2018-02-11T01:06:12.252Z,38.33
2018-02-11T01:08:39.399Z,38.53
2018-02-11T01:11:06.214Z,37.20
2018-02-11T01:13:33.052Z,35.80
2018-02-11T01:15:59.906Z,37.10
2018-02-11T01:18:27.074Z,36.28
2018-02-11T01:20:53.895Z,35.45
2018-02-11T01:23:20.774Z,35.30
2018-02-11T01:25:47.629Z,35.65
2018-02-11T01:28:14.760Z,36.33
2018-02-11T01:30:41.647Z,37.40
2018-02-11T01:33:08.500Z,38.85
2018-02-11T01:35:35.599Z,37.25
2018-02-11T01:38:02.438Z,36.20
2018-02-11T01:40:29.258Z,36.67
2018-02-11T01:42:56.329Z,37.42
2018-02-11T01:45:23.211Z,37.13
2018-02-11T01:47:50.025Z,37.67
2018-02-11T01:50:16.842Z,36.67
2018-02-11T01:52:43.702Z,40.85
2018-02-11T01:55:10.521Z,38.45
2018-02-11T01:57:37.590Z,40.45
2018-02-11T02:00:04.472Z,39.20
2018-02-11T02:02:31.592Z,41.30
2018-02-11T02:04:58.738Z,38.90
2018-02-11T02:07:25.587Z,38.05
2018-02-11T02:09:52.410Z,40.42
2018-02-11T02:12:19.570Z,40.12
2018-02-11T02:14:46.456Z,39.60
2018-02-11T02:17:13.575Z,39.10
2018-02-11T02:19:40.410Z,39.00
2018-02-11T02:22:07.340Z,39.60
2018-02-11T02:24:34.175Z,38.70
2018-02-11T02:27:01.001Z,40.53
2018-02-11T02:29:27.887Z,40.78
2018-02-11T02:31:54.726Z,40.85
2018-02-11T02:34:21.558Z,40.25
2018-02-11T02:36:48.411Z,42.10
2018-02-11T02:39:15.316Z,40.83
2018-02-11T02:41:42.184Z,41.25
2018-02-11T02:44:09.350Z,40.15
2018-02-11T02:46:36.183Z,41.78
2018-02-11T02:49:03.038Z,43.53
2018-02-11T02:51:30.190Z,42.15
2018-02-11T02:53:57.359Z,40.72
2018-02-11T02:56:24.199Z,41.97
2018-02-11T02:58:51.060Z,40.40
2018-02-11T03:01:18.204Z,39.13
2018-02-11T03:03:45.058Z,40.63
2018-02-11T03:06:11.877Z,39.85
2018-02-11T03:08:39.011Z,39.67
2018-02-11T03:11:05.862Z,40.38
2018-02-11T03:13:32.678Z,39.10
2018-02-11T03:15:59.548Z,38.55
2018-02-11T03:18:26.697Z,40.60
2018-02-11T03:20:53.774Z,40.10
2018-02-11T03:23:20.640Z,41.25
2018-02-11T03:25:47.454Z,38.08
2018-02-11T03:28:14.576Z,38.92
2018-02-11T03:30:41.445Z,39.45
2018-02-11T03:33:08.320Z,40.03
2018-02-11T03:35:35.152Z,40.55
2018-02-11T03:38:02.021Z,40.20
2018-02-11T03:40:28.866Z,39.38
2018-02-11T03:42:55.731Z,38.63
2018-02-11T03:45:22.635Z,39.00
2018-02-11T03:47:49.475Z,37.17
2018-02-11T03:50:16.680Z,37.45
2018-02-11T03:52:43.556Z,37.30
2018-02-11T03:55:10.370Z,37.15
2018-02-11T03:57:37.259Z,37.22
2018-02-11T04:00:04.357Z,37.35
2018-02-11T04:02:31.511Z,35.58
2018-02-11T04:04:58.663Z,36.20
2018-02-11T04:07:25.502Z,35.75
2018-02-11T04:09:52.342Z,34.60
2018-02-11T04:12:19.159Z,34.47
2018-02-11T04:14:45.991Z,33.22
2018-02-11T04:17:13.079Z,34.80
2018-02-11T04:19:39.891Z,34.22
2018-02-11T04:22:06.734Z,34.65
2018-02-11T04:24:33.550Z,35.20
2018-02-11T04:27:00.371Z,34.60
2018-02-11T04:29:27.213Z,34.97
2018-02-11T04:31:54.021Z,36.33
2018-02-11T04:34:21.188Z,34.50
2018-02-11T04:36:48.002Z,35.70
2018-02-11T04:39:14.815Z,34.50
2018-02-11T04:41:42.032Z,34.70
2018-02-11T04:44:09.175Z,35.83
2018-02-11T04:46:36.060Z,35.22
2018-02-11T04:49:02.913Z,34.47
2018-02-11T04:51:29.772Z,35.78
2018-02-11T04:53:56.662Z,33.50
2018-02-11T04:56:23.478Z,34.65
2018-02-11T04:58:50.327Z,34.10
2018-02-11T05:01:17.386Z,33.78
2018-02-11T05:03:44.248Z,35.10
2018-02-11T05:06:11.123Z,34.58
2018-02-11T05:08:37.988Z,32.03
2018-02-11T05:11:04.887Z,33.65
2018-02-11T05:13:31.748Z,33.20
2018-02-11T05:15:58.570Z,33.40
2018-02-11T05:18:25.701Z,33.72
2018-02-11T05:20:52.844Z,33.30
2018-02-11T05:23:19.715Z,31.92
2018-02-11T05:25:46.533Z,33.55
2018-02-11T05:28:13.349Z,30.52
2018-02-11T05:30:40.211Z,32.03
2018-02-11T05:33:07.072Z,32.35
2018-02-11T05:35:33.939Z,32.10
2018-02-11T05:38:01.055Z,30.10
2018-02-11T05:40:27.883Z,31.92
2018-02-11T05:42:54.735Z,29.12
2018-02-11T05:45:21.588Z,29.83
2018-02-11T05:47:48.435Z,29.33
2018-02-11T05:50:15.255Z,29.60
2018-02-11T05:52:42.413Z,29.23
2018-02-11T05:55:09.206Z,29.52
2018-02-11T05:57:36.042Z,30.17
2018-02-11T06:00:02.875Z,30.48
2018-02-11T06:02:29.721Z,30.90
2018-02-11T06:04:56.580Z,30.25
2018-02-11T06:07:23.436Z,30.00
2018-02-11T06:09:50.632Z,30.30
2018-02-11T06:12:17.446Z,30.05
2018-02-11T06:14:44.304Z,32.35
2018-02-11T06:17:11.467Z,29.80
2018-02-11T06:19:38.615Z,31.40
2018-02-11T06:22:05.472Z,29.75
2018-02-11T06:24:32.607Z,30.43
2018-02-11T06:26:59.429Z,28.70
2018-02-11T06:29:26.250Z,27.75
2018-02-11T06:31:53.090Z,29.45
2018-02-11T06:34:20.185Z,29.20
2018-02-11T06:36:47.079Z,29.02
2018-02-11T06:39:14.184Z,31.52
2018-02-11T06:41:41.052Z,27.60
2018-02-11T06:44:07.890Z,27.55
2018-02-11T06:46:35.014Z,27.33
2018-02-11T06:49:01.876Z,25.62
2018-02-11T06:51:28.733Z,26.15
2018-02-11T06:53:55.851Z,25.33
2018-02-11T06:56:22.710Z,26.42
2018-02-11T06:58:49.611Z,26.35
2018-02-11T07:01:16.468Z,28.20
2018-02-11T07:03:43.311Z,27.58
2018-02-11T07:06:10.126Z,26.90
2018-02-11T07:08:36.980Z,26.90
2018-02-11T07:11:03.794Z,25.80
2018-02-11T07:13:30.681Z,27.73
2018-02-11T07:15:57.859Z,24.85
2018-02-11T07:18:24.707Z,25.58
2018-02-11T07:20:51.854Z,27.30
2018-02-11T07:23:18.716Z,24.77
2018-02-11T07:25:45.542Z,25.45
2018-02-11T07:28:12.428Z,25.12
2018-02-11T07:30:39.252Z,24.17
2018-02-11T07:33:06.097Z,24.90
2018-02-11T07:35:32.964Z,22.98
2018-02-11T07:37:59.828Z,22.73
2018-02-11T07:40:26.683Z,22.48
2018-02-11T07:42:53.738Z,23.40
2018-02-11T07:45:20.676Z,22.60
2018-02-11T07:47:47.536Z,21.30
2018-02-11T07:50:14.392Z,22.05
2018-02-11T07:52:41.214Z,23.27
2018-02-11T07:55:08.030Z,20.40
2018-02-11T07:57:34.904Z,22.20
2018-02-11T08:00:02.121Z,21.57
2018-02-11T08:02:28.910Z,21.98
2018-02-11T08:04:55.783Z,21.50
2018-02-11T08:07:22.595Z,21.15
2018-02-11T08:09:49.482Z,21.48
2018-02-11T08:12:16.574Z,20.00
2018-02-11T08:14:43.395Z,20.40
2018-02-11T08:17:10.239Z,19.60
2018-02-11T08:19:37.307Z,19.27
2018-02-11T08:22:04.154Z,20.25
2018-02-11T08:24:30.985Z,19.10
2018-02-11T08:26:57.814Z,19.30
2018-02-11T08:29:24.646Z,18.60
2018-02-11T08:31:51.495Z,20.00
2018-02-11T08:34:18.356Z,18.80
2018-02-11T08:36:45.523Z,18.40
2018-02-11T08:39:12.344Z,18.30
2018-02-11T08:41:39.192Z,19.23
2018-02-11T08:44:06.039Z,18.67
2018-02-11T08:46:33.070Z,19.87
2018-02-11T08:49:00.142Z,18.40
2018-02-11T08:51:27.046Z,18.75
2018-02-11T08:53:54.139Z,18.75
2018-02-11T08:56:21.287Z,17.60
2018-02-11T08:58:48.444Z,17.67
2018-02-11T09:01:15.586Z,18.40
2018-02-11T09:03:42.468Z,17.77
2018-02-11T09:06:09.582Z,18.55
2018-02-11T09:08:36.431Z,17.60
2018-02-11T09:11:03.584Z,20.15
2018-02-11T09:13:30.451Z,18.90
2018-02-11T09:15:57.571Z,18.67
2018-02-11T09:18:24.427Z,17.60
2018-02-11T09:20:51.287Z,16.60
2018-02-11T09:23:18.131Z,17.02
2018-02-11T09:25:44.962Z,17.90
2018-02-11T09:28:11.799Z,17.37
2018-02-11T09:30:38.654Z,18.75
2018-02-11T09:33:05.478Z,19.58
2018-02-11T09:35:32.623Z,18.67
2018-02-11T09:37:59.499Z,18.00
2018-02-11T09:40:26.357Z,17.65
2018-02-11T09:42:53.214Z,19.00
2018-02-11T09:45:20.038Z,16.77
2018-02-11T09:47:47.147Z,17.50
2018-02-11T09:50:14.071Z,14.85
2018-02-11T09:52:40.936Z,17.60
2018-02-11T09:55:07.819Z,15.75
2018-02-11T09:57:34.931Z,15.63
2018-02-11T10:00:01.775Z,15.00
2018-02-11T10:02:28.610Z,15.70
2018-02-11T10:04:55.667Z,14.25
2018-02-11T10:07:22.815Z,15.35
2018-02-11T10:09:49.638Z,13.95
2018-02-11T10:12:16.803Z,15.45
2018-02-11T10:14:43.668Z,14.85
2018-02-11T10:17:10.504Z,15.50
2018-02-11T10:19:37.660Z,13.90
2018-02-11T10:22:04.796Z,14.40
2018-02-11T10:24:31.942Z,13.00
2018-02-11T10:26:58.815Z,13.15
2018-02-11T10:29:25.668Z,13.75
2018-02-11T10:31:52.536Z,14.20
2018-02-11T10:34:19.728Z,12.18
2018-02-11T10:36:46.874Z,11.93
2018-02-11T10:39:13.690Z,13.00
2018-02-11T10:41:40.511Z,12.40
2018-02-11T10:44:07.610Z,11.60
2018-02-11T10:46:34.430Z,11.38
2018-02-11T10:49:01.310Z,10.48
2018-02-11T10:51:28.176Z,11.73
2018-02-11T10:53:55.036Z,11.80
2018-02-11T10:56:22.447Z,10.95
2018-02-11T10:58:49.304Z,10.75
2018-02-11T11:01:16.137Z,11.40
2018-02-11T11:03:42.991Z,10.70
2018-02-11T11:06:10.124Z,12.60
2018-02-11T11:08:36.992Z,10.90
2018-02-11T11:11:04.123Z,11.73
2018-02-11T11:13:31.267Z,10.13
2018-02-11T11:15:58.084Z,10.80
2018-02-11T11:18:24.935Z,11.00
2018-02-11T11:20:51.763Z,10.00
2018-02-11T11:23:18.616Z,10.60
2018-02-11T11:25:45.492Z,9.90
2018-02-11T11:28:12.337Z,7.53
2018-02-11T11:30:39.166Z,8.48
2018-02-11T11:33:06.334Z,10.05
2018-02-11T11:35:33.469Z,8.55
2018-02-11T11:38:00.334Z,8.27
2018-02-11T11:40:27.458Z,8.18
2018-02-11T11:42:54.295Z,7.82
2018-02-11T11:45:21.122Z,8.20
2018-02-11T11:47:48.191Z,8.23
2018-02-11T11:50:15.056Z,8.10
2018-02-11T11:52:41.886Z,8.20
2018-02-11T11:55:08.725Z,8.10
2018-02-11T11:57:35.770Z,8.45
2018-02-11T12:00:02.595Z,8.00
2018-02-11T12:02:29.452Z,8.32
2018-02-11T12:04:56.288Z,8.15
2018-02-11T12:07:23.135Z,7.55
2018-02-11T12:09:49.987Z,8.00
2018-02-11T12:12:16.815Z,7.82
2018-02-11T12:14:43.658Z,8.05
2018-02-11T12:17:10.516Z,8.40
2018-02-11T12:19:37.322Z,8.00
2018-02-11T12:22:04.180Z,7.40
2018-02-11T12:24:31.006Z,8.10
2018-02-11T12:26:57.876Z,7.45
2018-02-11T12:29:24.687Z,8.10
2018-02-11T12:31:51.569Z,7.40
2018-02-11T12:34:18.436Z,7.70
2018-02-11T12:36:45.331Z,8.03
2018-02-11T12:39:12.520Z,8.60
2018-02-11T12:41:39.334Z,8.48
2018-02-11T12:44:06.180Z,8.30
2018-02-11T12:46:33.002Z,9.00
2018-02-11T12:48:59.852Z,8.70
2018-02-11T12:51:26.743Z,9.00
2018-02-11T12:53:53.612Z,8.80
2018-02-11T12:56:20.452Z,9.30
2018-02-11T12:58:47.567Z,8.85
2018-02-11T13:01:14.416Z,9.17
2018-02-11T13:03:41.242Z,8.80
2018-02-11T13:06:08.067Z,8.80
2018-02-11T13:08:35.142Z,8.88
2018-02-11T13:11:02.293Z,9.80
2018-02-11T13:13:29.447Z,8.80
2018-02-11T13:15:56.604Z,9.20
2018-02-11T13:18:23.407Z,9.15
2018-02-11T13:20:50.263Z,8.80
2018-02-11T13:23:17.439Z,9.38
2018-02-11T13:25:44.251Z,8.77
2018-02-11T13:28:11.428Z,9.27
2018-02-11T13:30:38.246Z,8.90
2018-02-11T13:33:05.445Z,9.90
2018-02-11T13:35:32.574Z,9.50
2018-02-11T13:37:59.438Z,9.68
2018-02-11T13:40:26.282Z,9.40
2018-02-11T13:42:53.407Z,8.95
2018-02-11T13:45:20.555Z,8.88
2018-02-11T13:47:47.532Z,8.50
2018-02-11T13:50:14.318Z,9.60
2018-02-11T13:52:41.183Z,9.18
2018-02-11T13:55:08.030Z,8.90
2018-02-11T13:57:34.843Z,8.77
2018-02-11T14:00:01.709Z,9.05
2018-02-11T14:02:28.522Z,9.10
2018-02-11T14:04:55.447Z,9.30
2018-02-11T14:07:22.564Z,9.40
2018-02-11T14:09:49.718Z,9.18
2018-02-11T14:12:16.558Z,9.48
2018-02-11T14:14:43.394Z,9.40
2018-02-11T14:17:10.275Z,8.90
2018-02-11T14:19:37.131Z,9.15
2018-02-11T14:22:03.938Z,8.85
2018-02-11T14:24:30.808Z,9.40
2018-02-11T14:26:57.892Z,9.05
2018-02-11T14:29:24.730Z,9.55
2018-02-11T14:31:51.555Z,9.30
2018-02-11T14:34:18.384Z,9.13
2018-02-11T14:36:45.218Z,9.80
2018-02-11T14:39:12.097Z,10.13
2018-02-11T14:41:38.912Z,8.80
2018-02-11T14:44:05.734Z,9.55
2018-02-11T14:46:32.558Z,9.40
2018-02-11T14:48:59.399Z,9.60
2018-02-11T14:51:26.259Z,9.60
2018-02-11T14:53:53.091Z,9.98
2018-02-11T14:56:20.824Z,9.80
2018-02-11T14:58:47.698Z,9.55
2018-02-11T15:01:14.559Z,9.63
2018-02-11T15:03:41.692Z,10.40
2018-02-11T15:06:08.844Z,9.90
2018-02-11T15:08:35.660Z,10.20
2018-02-11T15:11:02.487Z,10.10
2018-02-11T15:13:29.317Z,9.98
2018-02-11T15:15:56.420Z,9.50
2018-02-11T15:18:23.255Z,10.30
2018-02-11T15:20:50.083Z,10.02
2018-02-11T15:23:16.954Z,10.15
2018-02-11T15:25:44.094Z,9.88
2018-02-11T15:28:10.910Z,9.88
2018-02-11T15:30:37.772Z,9.60
2018-02-11T15:33:04.620Z,9.23
2018-02-11T15:35:31.492Z,9.70
2018-02-11T15:37:58.376Z,9.55
2018-02-11T15:40:25.236Z,9.20
2018-02-11T15:42:52.104Z,9.63
2018-02-11T15:45:18.911Z,9.90
2018-02-11T15:47:45.994Z,9.52
2018-02-11T15:50:13.144Z,9.93
2018-02-11T15:52:40.394Z,10.10
2018-02-11T15:55:07.263Z,10.23
2018-02-11T15:57:34.078Z,10.27
2018-02-11T16:00:01.238Z,9.60
2018-02-11T16:02:28.093Z,9.65
2018-02-11T16:04:54.898Z,9.30
2018-02-11T16:07:22.066Z,9.93
2018-02-11T16:09:48.912Z,10.27
2018-02-11T16:12:15.730Z,9.50
2018-02-11T16:14:42.608Z,9.85
2018-02-11T16:17:09.472Z,10.30
2018-02-11T16:19:36.375Z,10.25
2018-02-11T16:22:03.240Z,10.23
2018-02-11T16:24:30.081Z,11.00
2018-02-11T16:26:56.951Z,10.23
2018-02-11T16:29:24.071Z,10.55
2018-02-11T16:31:50.956Z,10.70
2018-02-11T16:34:17.816Z,11.60
2018-02-11T16:36:44.644Z,11.15
2018-02-11T16:39:11.746Z,11.05
2018-02-11T16:41:38.589Z,11.30
2018-02-11T16:44:05.504Z,11.10
2018-02-11T16:46:32.343Z,11.00
2018-02-11T16:48:59.198Z,11.15
2018-02-11T16:51:26.072Z,10.80
2018-02-11T16:53:53.220Z,11.30
2018-02-11T16:56:20.366Z,11.90
2018-02-11T16:58:47.207Z,12.30
2018-02-11T17:01:14.052Z,11.40
2018-02-11T17:03:40.921Z,11.65
2018-02-11T17:06:07.784Z,12.00
2018-02-11T17:08:34.887Z,11.52
2018-02-11T17:11:01.718Z,11.50
2018-02-11T17:13:28.880Z,11.80
2018-02-11T17:15:55.734Z,11.38
2018-02-11T17:18:22.585Z,11.65
2018-02-11T17:20:49.447Z,11.70
2018-02-11T17:23:16.361Z,12.00
2018-02-11T17:25:43.512Z,10.55
2018-02-11T17:28:10.338Z,10.30
2018-02-11T17:30:37.504Z,10.57
2018-02-11T17:33:04.344Z,10.13
2018-02-11T17:35:31.518Z,10.53
2018-02-11T17:37:58.359Z,10.15
2018-02-11T17:40:25.244Z,10.60
2018-02-11T17:42:52.067Z,10.40
2018-02-11T17:45:18.923Z,9.60
2018-02-11T17:47:45.727Z,9.70
2018-02-11T17:50:12.583Z,10.10
2018-02-11T17:52:39.429Z,10.23
2018-02-11T17:55:06.258Z,10.15
2018-02-11T17:57:33.109Z,9.70
2018-02-11T17:59:59.926Z,9.45
2018-02-11T18:02:27.082Z,9.95
2018-02-11T18:04:53.948Z,9.77
2018-02-11T18:07:20.986Z,10.85
2018-02-11T18:09:48.125Z,10.88
2018-02-11T18:12:14.980Z,11.18
2018-02-11T18:14:41.849Z,11.00
2018-02-11T18:17:09.155Z,11.73
2018-02-11T18:19:36.313Z,11.63
2018-02-11T18:22:03.188Z,11.30
2018-02-11T18:24:30.007Z,11.82
2018-02-11T18:26:56.865Z,13.17
2018-02-11T18:29:23.724Z,12.95
2018-02-11T18:31:50.549Z,12.50
2018-02-11T18:34:17.410Z,12.43
2018-02-11T18:36:44.628Z,12.45
2018-02-11T18:39:11.457Z,11.83
2018-02-11T18:41:38.312Z,11.50
2018-02-11T18:44:05.461Z,11.43
2018-02-11T18:46:32.295Z,11.73
2018-02-11T18:48:59.120Z,11.47
2018-02-11T18:51:25.940Z,11.50
2018-02-11T18:53:53.046Z,11.82
2018-02-11T18:56:19.888Z,11.13
2018-02-11T18:58:47.044Z,11.70
2018-02-11T19:01:14.178Z,11.60
2018-02-11T19:03:40.994Z,11.25
2018-02-11T19:06:08.109Z,11.48
2018-02-11T19:08:35.223Z,11.27
2018-02-11T19:11:02.059Z,11.35
2018-02-11T19:13:28.893Z,12.00
2018-02-11T19:15:55.731Z,11.30
2018-02-11T19:18:22.570Z,11.20
2018-02-11T19:20:49.427Z,10.27
2018-02-11T19:23:16.258Z,9.80
2018-02-11T19:25:43.100Z,9.10
2018-02-11T19:28:10.170Z,9.40
2018-02-11T19:30:37.373Z,10.52
2018-02-11T19:33:04.191Z,10.48
2018-02-11T19:35:31.076Z,9.13
2018-02-11T19:37:57.888Z,9.20
2018-02-11T19:40:24.768Z,9.20
2018-02-11T19:42:51.588Z,9.88
2018-02-11T19:45:18.409Z,11.10
2018-02-11T19:47:45.239Z,10.30
2018-02-11T19:50:12.115Z,9.73
2018-02-11T19:52:38.989Z,9.70
2018-02-11T19:55:06.159Z,9.20
2018-02-11T19:57:33.710Z,9.23
2018-02-11T20:00:00.610Z,9.32
2018-02-11T20:02:27.464Z,9.20
2018-02-11T20:04:54.303Z,8.75
2018-02-11T20:07:21.172Z,9.23
2018-02-11T20:09:48.351Z,8.27
2018-02-11T20:12:15.504Z,7.62
2018-02-11T20:14:42.311Z,8.00
2018-02-11T20:17:09.387Z,7.60
2018-02-11T20:19:36.222Z,11.65
2018-02-11T20:22:03.388Z,6.80
2018-02-11T20:24:30.230Z,7.20
2018-02-11T20:26:57.065Z,6.70
2018-02-11T20:29:23.906Z,6.75
2018-02-11T20:31:50.756Z,6.90
2018-02-11T20:34:17.908Z,6.87
2018-02-11T20:36:44.738Z,7.28
2018-02-11T20:39:11.551Z,7.57
2018-02-11T20:41:38.359Z,8.03
2018-02-11T20:44:05.183Z,8.38
2018-02-11T20:46:32.030Z,9.60
2018-02-11T20:48:58.900Z,8.90
2018-02-11T20:51:26.016Z,9.50
2018-02-11T20:53:52.868Z,8.50
2018-02-11T20:56:19.686Z,9.30
2018-02-11T20:58:46.857Z,10.30
2018-02-11T21:01:13.732Z,9.37
2018-02-11T21:03:40.568Z,9.30
2018-02-11T21:06:07.399Z,9.68
2018-02-11T21:08:34.226Z,9.70
2018-02-11T21:11:01.042Z,9.18
2018-02-11T21:13:28.222Z,8.50
2018-02-11T21:15:55.080Z,9.50
2018-02-11T21:18:22.212Z,8.90
2018-02-11T21:20:49.359Z,8.70
2018-02-11T21:23:16.170Z,8.60
2018-02-11T21:25:43.005Z,8.15
2018-02-11T21:28:09.839Z,8.25
2018-02-11T21:30:36.683Z,7.45
2018-02-11T21:33:03.507Z,7.70
2018-02-11T21:35:30.623Z,6.60
2018-02-11T21:37:57.488Z,7.43
2018-02-11T21:40:24.301Z,6.72
2018-02-11T21:42:51.153Z,7.60
2018-02-11T21:45:17.974Z,5.90
2018-02-11T21:47:45.042Z,8.50
2018-02-11T21:50:12.205Z,6.77
2018-02-11T21:52:39.095Z,7.15
2018-02-11T21:55:05.938Z,5.82
2018-02-11T21:57:33.135Z,5.10
2018-02-11T21:59:59.957Z,5.25
2018-02-11T22:02:27.132Z,4.90
2018-02-11T22:04:53.984Z,4.70
2018-02-11T22:07:20.832Z,4.50
2018-02-11T22:09:47.977Z,4.35
2018-02-11T22:12:14.786Z,4.15
2018-02-11T22:14:41.623Z,4.20
2018-02-11T22:17:08.468Z,4.22
2018-02-11T22:19:35.539Z,3.80
2018-02-11T22:22:02.419Z,3.75
2018-02-11T22:24:29.227Z,4.25
2018-02-11T22:26:56.384Z,5.05
2018-02-11T22:29:23.187Z,3.83
2018-02-11T22:31:50.037Z,3.80
2018-02-11T22:34:16.892Z,4.07
2018-02-11T22:36:43.779Z,3.60
2018-02-11T22:39:10.606Z,3.80
2018-02-11T22:41:37.444Z,3.80
2018-02-11T22:44:04.286Z,3.90
2018-02-11T22:46:31.105Z,3.72
2018-02-11T22:48:58.276Z,3.80
2018-02-11T22:51:25.119Z,3.50
2018-02-11T22:53:52.265Z,3.60
2018-02-11T22:56:19.103Z,3.40
2018-02-11T22:58:46.273Z,3.33
2018-02-11T23:01:13.153Z,4.25
2018-02-11T23:03:40.008Z,3.75
2018-02-11T23:06:06.820Z,3.33
2018-02-11T23:08:33.719Z,3.50
2018-02-11T23:11:00.534Z,4.03
2018-02-11T23:13:27.634Z,3.53
2018-02-11T23:15:54.488Z,3.42
2018-02-11T23:18:21.336Z,4.00
2018-02-11T23:20:48.171Z,5.45
2018-02-11T23:23:15.036Z,4.07
2018-02-11T23:25:41.857Z,3.70
2018-02-11T23:28:08.702Z,4.03
2018-02-11T23:30:35.834Z,3.85
2018-02-11T23:33:02.720Z,3.62
2018-02-11T23:35:29.829Z,3.10
2018-02-11T23:37:56.673Z,3.30
2018-02-11T23:40:23.828Z,3.60
2018-02-11T23:42:50.971Z,4.27
2018-02-11T23:45:18.079Z,3.90
2018-02-11T23:47:44.918Z,3.45
2018-02-11T23:50:11.767Z,3.60
2018-02-11T23:52:38.633Z,4.00
2018-02-11T23:55:05.808Z,3.95
2018-02-11T23:57:32.955Z,3.53
2018-02-11T23:59:59.799Z,3.97
